createdAt,value
2019-05-23T00:00:04.793Z,993.52
2019-05-23T00:01:04.926Z,993.50
2019-05-23T00:02:05.037Z,993.51
2019-05-23T00:03:05.180Z,993.56
2019-05-23T00:04:05.307Z,993.52
2019-05-23T00:05:05.437Z,993.56
2019-05-23T00:06:05.601Z,993.52
2019-05-23T00:07:05.743Z,993.55
2019-05-23T00:08:05.858Z,993.56
2019-05-23T00:09:05.990Z,993.56
2019-05-23T00:10:06.124Z,993.52
2019-05-23T00:11:06.249Z,993.54
2019-05-23T00:12:06.380Z,993.57
2019-05-23T00:13:06.507Z,993.52
2019-05-23T00:14:06.658Z,993.54
2019-05-23T00:15:06.788Z,993.55
2019-05-23T00:16:06.903Z,993.54
2019-05-23T00:17:07.046Z,993.54
2019-05-23T00:18:08.011Z,993.52
2019-05-23T00:19:07.279Z,993.51
2019-05-23T00:20:07.389Z,993.51
2019-05-23T00:21:07.522Z,993.50
2019-05-23T00:22:07.677Z,993.50
2019-05-23T00:23:07.794Z,993.52
2019-05-23T00:24:07.928Z,993.49
2019-05-23T00:25:08.049Z,993.46
2019-05-23T00:26:08.173Z,993.50
2019-05-23T00:27:08.307Z,993.48
2019-05-23T00:28:08.489Z,993.49
2019-05-23T00:29:10.330Z,993.46
2019-05-23T00:30:08.740Z,993.51
2019-05-23T00:31:08.878Z,993.51
2019-05-23T00:32:09.020Z,993.47
2019-05-23T00:33:09.150Z,993.52
2019-05-23T00:34:09.279Z,993.48
2019-05-23T00:35:09.393Z,993.49
2019-05-23T00:36:09.523Z,993.45
2019-05-23T00:37:09.646Z,993.50
2019-05-23T00:38:09.778Z,993.48
2019-05-23T00:39:09.907Z,993.48
2019-05-23T00:40:10.042Z,993.49
2019-05-23T00:41:10.161Z,993.51
2019-05-23T00:42:10.291Z,993.48
2019-05-23T00:43:10.429Z,993.50
2019-05-23T00:44:10.537Z,993.50
2019-05-23T00:45:10.665Z,993.46
2019-05-23T00:46:10.794Z,993.47
2019-05-23T00:47:10.924Z,993.49
2019-05-23T00:48:11.047Z,993.53
2019-05-23T00:49:11.177Z,993.49
2019-05-23T00:50:11.307Z,993.49
2019-05-23T00:51:11.433Z,993.50
2019-05-23T00:52:11.584Z,993.51
2019-05-23T00:53:11.691Z,993.48
2019-05-23T00:54:11.829Z,993.53
2019-05-23T00:55:11.963Z,993.57
2019-05-23T00:56:12.089Z,993.60
2019-05-23T00:57:12.219Z,993.56
2019-05-23T00:58:12.372Z,993.56
2019-05-23T00:59:25.898Z,993.56
2019-05-23T01:00:12.630Z,993.58
2019-05-23T01:01:12.755Z,993.58
2019-05-23T01:02:12.897Z,993.55
2019-05-23T01:03:13.024Z,993.60
2019-05-23T01:04:13.153Z,993.61
2019-05-23T01:05:13.274Z,993.63
2019-05-23T01:06:13.402Z,993.62
2019-05-23T01:07:13.526Z,993.59
2019-05-23T01:08:13.648Z,993.62
2019-05-23T01:09:13.777Z,993.60
2019-05-23T01:10:13.902Z,993.60
2019-05-23T01:11:14.046Z,993.60
2019-05-23T01:12:14.206Z,993.61
2019-05-23T01:13:14.319Z,993.61
2019-05-23T01:14:14.441Z,993.60
2019-05-23T01:15:14.600Z,993.58
2019-05-23T01:16:14.722Z,993.60
2019-05-23T01:17:14.840Z,993.61
2019-05-23T01:18:14.975Z,993.61
2019-05-23T01:19:15.116Z,993.57
2019-05-23T01:20:15.243Z,993.60
2019-05-23T01:21:15.374Z,993.61
2019-05-23T01:22:15.614Z,993.57
2019-05-23T01:23:15.664Z,993.58
2019-05-23T01:24:15.798Z,993.55
2019-05-23T01:25:15.920Z,993.57
2019-05-23T01:26:16.054Z,993.54
2019-05-23T01:27:16.177Z,993.54
2019-05-23T01:28:16.306Z,993.54
2019-05-23T01:29:16.443Z,993.53
2019-05-23T01:30:16.573Z,993.54
2019-05-23T01:31:16.698Z,993.53
2019-05-23T01:32:16.824Z,993.50
2019-05-23T01:33:16.946Z,993.49
2019-05-23T01:34:17.098Z,993.52
2019-05-23T01:35:17.227Z,993.50
2019-05-23T01:36:17.356Z,993.51
2019-05-23T01:37:17.482Z,993.51
2019-05-23T01:38:17.628Z,993.52
2019-05-23T01:39:17.770Z,993.54
2019-05-23T01:40:17.882Z,993.54
2019-05-23T01:41:18.010Z,993.50
2019-05-23T01:42:18.183Z,993.54
2019-05-23T01:43:18.319Z,993.51
2019-05-23T01:44:18.447Z,993.54
2019-05-23T01:45:18.578Z,993.53
2019-05-23T01:46:18.728Z,993.55
2019-05-23T01:47:18.851Z,993.52
2019-05-23T01:48:18.992Z,993.52
2019-05-23T01:49:19.118Z,993.51
2019-05-23T01:50:19.249Z,993.54
2019-05-23T01:51:19.373Z,993.55
2019-05-23T01:52:19.510Z,993.55
2019-05-23T01:53:19.645Z,993.57
2019-05-23T01:54:19.774Z,993.54
2019-05-23T01:55:19.902Z,993.53
2019-05-23T01:56:20.032Z,993.56
2019-05-23T01:57:20.160Z,993.55
2019-05-23T01:58:20.346Z,993.52
2019-05-23T01:59:20.417Z,993.56
2019-05-23T02:00:20.547Z,993.50
2019-05-23T02:01:20.682Z,993.53
2019-05-23T02:02:20.831Z,993.57
2019-05-23T02:03:20.958Z,993.53
2019-05-23T02:04:21.088Z,993.52
2019-05-23T02:05:21.229Z,993.52
2019-05-23T02:06:21.345Z,993.56
2019-05-23T02:07:21.474Z,993.52
2019-05-23T02:08:21.625Z,993.59
2019-05-23T02:09:21.761Z,993.52
2019-05-23T02:10:21.902Z,993.56
2019-05-23T02:11:22.020Z,993.52
2019-05-23T02:12:22.146Z,993.55
2019-05-23T02:13:22.296Z,993.52
2019-05-23T02:14:22.422Z,993.51
2019-05-23T02:15:22.548Z,993.49
2019-05-23T02:16:22.719Z,993.46
2019-05-23T02:17:22.833Z,993.49
2019-05-23T02:18:22.962Z,993.46
2019-05-23T02:19:23.100Z,993.46
2019-05-23T02:20:23.296Z,993.46
2019-05-23T02:21:23.365Z,993.50
2019-05-23T02:22:23.493Z,993.51
2019-05-23T02:23:23.606Z,993.49
2019-05-23T02:24:23.737Z,993.53
2019-05-23T02:25:23.862Z,993.48
2019-05-23T02:26:23.990Z,993.51
2019-05-23T02:27:24.133Z,993.51
2019-05-23T02:28:24.255Z,993.50
2019-05-23T02:29:24.383Z,993.47
2019-05-23T02:30:34.478Z,993.49
2019-05-23T02:31:24.670Z,993.49
2019-05-23T02:32:24.796Z,993.47
2019-05-23T02:33:24.926Z,993.49
2019-05-23T02:34:25.059Z,993.46
2019-05-23T02:35:25.214Z,993.48
2019-05-23T02:36:25.332Z,993.46
2019-05-23T02:37:25.458Z,993.44
2019-05-23T02:38:25.586Z,993.46
2019-05-23T02:39:25.724Z,993.45
2019-05-23T02:40:25.848Z,993.43
2019-05-23T02:41:25.972Z,993.46
2019-05-23T02:42:26.118Z,993.46
2019-05-23T02:43:26.253Z,993.44
2019-05-23T02:44:26.368Z,993.47
2019-05-23T02:45:26.493Z,993.50
2019-05-23T02:46:26.627Z,993.51
2019-05-23T02:47:26.773Z,993.51
2019-05-23T02:48:26.898Z,993.55
2019-05-23T02:49:27.030Z,993.51
2019-05-23T02:50:27.161Z,993.55
2019-05-23T02:51:27.362Z,993.53
2019-05-23T02:52:27.447Z,993.55
2019-05-23T02:53:27.577Z,993.59
2019-05-23T02:54:27.713Z,993.59
2019-05-23T02:55:27.857Z,993.58
2019-05-23T02:56:27.983Z,993.58
2019-05-23T02:57:28.113Z,993.54
2019-05-23T02:58:28.272Z,993.58
2019-05-23T02:59:28.394Z,993.54
2019-05-23T03:00:28.519Z,993.51
2019-05-23T03:01:28.646Z,993.57
2019-05-23T03:02:28.804Z,993.57
2019-05-23T03:03:28.942Z,993.55
2019-05-23T03:04:29.055Z,993.54
2019-05-23T03:05:29.194Z,993.51
2019-05-23T03:06:29.326Z,993.51
2019-05-23T03:07:29.459Z,993.54
2019-05-23T03:08:29.582Z,993.50
2019-05-23T03:09:29.725Z,993.48
2019-05-23T03:10:29.843Z,993.49
2019-05-23T03:11:29.975Z,993.47
2019-05-23T03:12:30.101Z,993.50
2019-05-23T03:13:30.267Z,993.46
2019-05-23T03:14:30.395Z,993.48
2019-05-23T03:15:30.520Z,993.46
2019-05-23T03:16:30.656Z,993.46
2019-05-23T03:17:30.810Z,993.44
2019-05-23T03:18:34.444Z,993.45
2019-05-23T03:19:31.083Z,993.41
2019-05-23T03:20:31.225Z,993.39
2019-05-23T03:21:31.350Z,993.41
2019-05-23T03:22:31.482Z,993.40
2019-05-23T03:23:31.608Z,993.42
2019-05-23T03:24:31.768Z,993.44
2019-05-23T03:25:31.894Z,993.42
2019-05-23T03:26:32.020Z,993.41
2019-05-23T03:27:32.145Z,993.44
2019-05-23T03:28:32.292Z,993.46
2019-05-23T03:29:32.425Z,993.43
2019-05-23T03:30:32.569Z,993.47
2019-05-23T03:31:33.346Z,993.45
2019-05-23T03:32:38.229Z,993.46
2019-05-23T03:33:32.919Z,993.50
2019-05-23T03:34:33.053Z,993.50
2019-05-23T03:35:33.195Z,993.46
2019-05-23T03:36:33.314Z,993.48
2019-05-23T03:37:33.458Z,993.44
2019-05-23T03:38:33.591Z,993.46
2019-05-23T03:39:33.757Z,993.48
2019-05-23T03:40:33.846Z,993.47
2019-05-23T03:41:33.971Z,993.45
2019-05-23T03:42:34.096Z,993.44
2019-05-23T03:43:34.250Z,993.46
2019-05-23T03:44:34.385Z,993.48
2019-05-23T03:45:39.209Z,993.47
2019-05-23T03:46:34.640Z,993.44
2019-05-23T03:47:34.793Z,993.45
2019-05-23T03:48:34.919Z,993.46
2019-05-23T03:49:35.050Z,993.43
2019-05-23T03:50:35.187Z,993.43
2019-05-23T03:51:35.319Z,993.42
2019-05-23T03:52:35.450Z,993.41
2019-05-23T03:53:35.579Z,993.41
2019-05-23T03:54:35.704Z,993.43
2019-05-23T03:55:35.855Z,993.45
2019-05-23T03:56:35.980Z,993.47
2019-05-23T03:57:36.096Z,993.46
2019-05-23T03:58:36.243Z,993.47
2019-05-23T03:59:36.381Z,993.52
2019-05-23T04:00:36.505Z,993.51
2019-05-23T04:01:47.745Z,993.53
2019-05-23T04:02:36.754Z,993.53
2019-05-23T04:03:39.813Z,993.52
2019-05-23T04:04:37.025Z,993.53
2019-05-23T04:05:37.155Z,993.46
2019-05-23T04:06:37.331Z,993.49
2019-05-23T04:07:37.421Z,993.51
2019-05-23T04:08:37.545Z,993.46
2019-05-23T04:09:37.677Z,993.49
2019-05-23T04:10:37.824Z,993.51
2019-05-23T04:11:37.958Z,993.48
2019-05-23T04:12:38.071Z,993.46
2019-05-23T04:13:38.210Z,993.46
2019-05-23T04:14:38.335Z,993.49
2019-05-23T04:15:38.477Z,993.49
2019-05-23T04:16:38.600Z,993.47
2019-05-23T04:17:38.757Z,993.50
2019-05-23T04:18:38.860Z,993.49
2019-05-23T04:19:38.992Z,993.49
2019-05-23T04:20:39.119Z,993.45
2019-05-23T04:21:39.246Z,993.49
2019-05-23T04:22:39.384Z,993.47
2019-05-23T04:23:39.512Z,993.44
2019-05-23T04:24:39.632Z,993.49
2019-05-23T04:25:39.771Z,993.49
2019-05-23T04:26:39.893Z,993.47
2019-05-23T04:27:40.050Z,993.47
2019-05-23T04:28:40.166Z,993.46
2019-05-23T04:29:40.301Z,993.47
2019-05-23T04:30:40.417Z,993.46
2019-05-23T04:31:40.558Z,993.48
2019-05-23T04:32:40.721Z,993.48
2019-05-23T04:33:40.830Z,993.49
2019-05-23T04:34:40.948Z,993.43
2019-05-23T04:35:41.081Z,993.47
2019-05-23T04:36:41.211Z,993.48
2019-05-23T04:37:41.353Z,993.48
2019-05-23T04:38:41.478Z,993.45
2019-05-23T04:39:41.694Z,993.44
2019-05-23T04:40:41.746Z,993.43
2019-05-23T04:41:41.869Z,993.45
2019-05-23T04:42:41.989Z,993.40
2019-05-23T04:43:42.147Z,993.39
2019-05-23T04:44:44.329Z,993.42
2019-05-23T04:45:42.416Z,993.45
2019-05-23T04:46:42.553Z,993.44
2019-05-23T04:47:42.764Z,993.45
2019-05-23T04:48:42.817Z,993.43
2019-05-23T04:49:42.947Z,993.45
2019-05-23T04:50:43.090Z,993.44
2019-05-23T04:51:43.243Z,993.47
2019-05-23T04:52:43.354Z,993.47
2019-05-23T04:53:43.471Z,993.47
2019-05-23T04:54:43.593Z,993.49
2019-05-23T04:55:43.724Z,993.47
2019-05-23T04:56:43.861Z,993.47
2019-05-23T04:57:43.986Z,993.47
2019-05-23T04:58:44.131Z,993.50
2019-05-23T04:59:44.256Z,993.48
2019-05-23T05:00:44.389Z,993.50
2019-05-23T05:01:44.530Z,993.50
2019-05-23T05:02:44.652Z,993.51
2019-05-23T05:03:44.774Z,993.46
2019-05-23T05:04:44.919Z,993.51
2019-05-23T05:05:45.092Z,993.54
2019-05-23T05:06:45.194Z,993.52
2019-05-23T05:07:45.380Z,993.53
2019-05-23T05:08:45.483Z,993.51
2019-05-23T05:09:45.599Z,993.49
2019-05-23T05:10:45.710Z,993.54
2019-05-23T05:11:45.838Z,993.52
2019-05-23T05:12:46.023Z,993.56
2019-05-23T05:13:46.171Z,993.53
2019-05-23T05:14:46.296Z,993.55
2019-05-23T05:15:46.442Z,993.57
2019-05-23T05:16:46.569Z,993.57
2019-05-23T05:17:46.698Z,993.59
2019-05-23T05:18:46.828Z,993.62
2019-05-23T05:19:47.005Z,993.60
2019-05-23T05:20:47.137Z,993.60
2019-05-23T05:21:47.268Z,993.61
2019-05-23T05:22:47.414Z,993.67
2019-05-23T05:23:47.553Z,993.62
2019-05-23T05:24:47.666Z,993.62
2019-05-23T05:25:47.789Z,993.59
2019-05-23T05:26:47.928Z,993.63
2019-05-23T05:27:48.066Z,993.63
2019-05-23T05:28:48.194Z,993.61
2019-05-23T05:29:48.326Z,993.66
2019-05-23T05:30:48.450Z,993.65
2019-05-23T05:31:48.600Z,993.68
2019-05-23T05:32:48.715Z,993.66
2019-05-23T05:33:48.840Z,993.66
2019-05-23T05:34:48.979Z,993.67
2019-05-23T05:35:49.157Z,993.68
2019-05-23T05:36:49.252Z,993.70
2019-05-23T05:37:49.390Z,993.67
2019-05-23T05:38:49.514Z,993.67
2019-05-23T05:39:49.644Z,993.69
2019-05-23T05:40:49.777Z,993.68
2019-05-23T05:41:49.931Z,993.67
2019-05-23T05:42:50.035Z,993.67
2019-05-23T05:43:50.159Z,993.68
2019-05-23T05:44:50.291Z,993.69
2019-05-23T05:45:50.414Z,993.68
2019-05-23T05:46:50.553Z,993.71
2019-05-23T05:47:50.688Z,993.71
2019-05-23T05:48:50.805Z,993.76
2019-05-23T05:49:50.943Z,993.77
2019-05-23T05:50:51.086Z,993.74
2019-05-23T05:51:51.212Z,993.74
2019-05-23T05:52:51.343Z,993.71
2019-05-23T05:53:51.470Z,993.73
2019-05-23T05:54:51.608Z,993.70
2019-05-23T05:55:51.817Z,993.75
2019-05-23T05:56:51.860Z,993.73
2019-05-23T05:57:51.990Z,993.78
2019-05-23T05:58:52.118Z,993.74
2019-05-23T05:59:52.246Z,993.78
2019-05-23T06:00:52.383Z,993.77
2019-05-23T06:01:52.508Z,993.77
2019-05-23T06:03:03.719Z,993.78
2019-05-23T06:03:52.775Z,993.79
2019-05-23T06:04:52.903Z,993.82
2019-05-23T06:05:53.029Z,993.83
2019-05-23T06:06:53.158Z,993.81
2019-05-23T06:07:53.290Z,993.85
2019-05-23T06:08:53.438Z,993.83
2019-05-23T06:09:53.543Z,993.85
2019-05-23T06:10:53.679Z,993.86
2019-05-23T06:11:53.822Z,993.84
2019-05-23T06:12:53.940Z,993.84
2019-05-23T06:13:54.273Z,993.84
2019-05-23T06:14:54.203Z,993.84
2019-05-23T06:15:54.325Z,993.87
2019-05-23T06:16:54.452Z,993.89
2019-05-23T06:17:54.581Z,993.88
2019-05-23T06:18:54.703Z,993.89
2019-05-23T06:19:54.850Z,993.91
2019-05-23T06:20:55.016Z,993.91
2019-05-23T06:21:55.112Z,993.88
2019-05-23T06:22:55.244Z,993.90
2019-05-23T06:23:55.369Z,993.93
2019-05-23T06:24:57.509Z,993.92
2019-05-23T06:25:55.637Z,993.93
2019-05-23T06:26:55.759Z,993.92
2019-05-23T06:27:55.887Z,993.90
2019-05-23T06:28:56.019Z,993.92
2019-05-23T06:29:56.159Z,993.91
2019-05-23T06:30:56.283Z,993.92
2019-05-23T06:31:56.415Z,993.92
2019-05-23T06:32:56.554Z,993.90
2019-05-23T06:33:56.674Z,993.90
2019-05-23T06:34:56.813Z,993.94
2019-05-23T06:35:56.940Z,993.88
2019-05-23T06:36:57.070Z,993.90
2019-05-23T06:37:57.350Z,993.89
2019-05-23T06:38:57.325Z,993.89
2019-05-23T06:39:57.470Z,993.86
2019-05-23T06:40:57.592Z,993.85
2019-05-23T06:41:57.714Z,993.86
2019-05-23T06:42:57.844Z,993.88
2019-05-23T06:43:57.973Z,993.87
2019-05-23T06:44:58.133Z,993.87
2019-05-23T06:45:58.236Z,993.88
2019-05-23T06:46:58.377Z,993.91
2019-05-23T06:47:58.497Z,993.88
2019-05-23T06:48:58.620Z,993.91
2019-05-23T06:49:58.752Z,993.91
2019-05-23T06:50:58.877Z,993.91
2019-05-23T06:51:59.008Z,993.89
2019-05-23T06:52:59.141Z,993.86
2019-05-23T06:53:59.268Z,993.89
2019-05-23T06:54:59.934Z,993.87
2019-05-23T06:55:59.527Z,993.85
2019-05-23T06:56:59.658Z,993.87
2019-05-23T06:57:59.794Z,993.83
2019-05-23T06:58:59.917Z,993.85
2019-05-23T07:00:00.044Z,993.82
2019-05-23T07:01:00.186Z,993.82
2019-05-23T07:02:00.318Z,993.83
2019-05-23T07:03:00.441Z,993.78
2019-05-23T07:04:00.577Z,993.76
2019-05-23T07:05:00.698Z,993.78
2019-05-23T07:06:00.839Z,993.76
2019-05-23T07:07:00.975Z,993.75
2019-05-23T07:08:01.104Z,993.77
2019-05-23T07:09:01.228Z,993.79
2019-05-23T07:10:01.598Z,993.78
2019-05-23T07:11:01.520Z,993.82
2019-05-23T07:12:01.659Z,993.76
2019-05-23T07:13:01.764Z,993.78
2019-05-23T07:14:01.894Z,993.77
2019-05-23T07:15:02.386Z,993.80
2019-05-23T07:16:02.154Z,993.85
2019-05-23T07:17:02.276Z,993.82
2019-05-23T07:18:02.422Z,993.83
2019-05-23T07:19:02.534Z,993.82
2019-05-23T07:20:02.660Z,993.83
2019-05-23T07:21:02.829Z,993.85
2019-05-23T07:22:02.939Z,993.87
2019-05-23T07:23:03.071Z,993.89
2019-05-23T07:24:03.190Z,993.90
2019-05-23T07:25:03.317Z,993.87
2019-05-23T07:26:03.448Z,993.86
2019-05-23T07:27:03.612Z,993.90
2019-05-23T07:28:03.722Z,993.87
2019-05-23T07:29:03.843Z,993.89
2019-05-23T07:30:03.969Z,993.88
2019-05-23T07:31:04.102Z,993.88
2019-05-23T07:32:04.243Z,993.89
2019-05-23T07:33:04.363Z,993.88
2019-05-23T07:34:04.494Z,993.87
2019-05-23T07:35:04.620Z,993.87
2019-05-23T07:36:04.756Z,993.83
2019-05-23T07:37:04.881Z,993.85
2019-05-23T07:38:05.032Z,993.84
2019-05-23T07:39:05.163Z,993.86
2019-05-23T07:40:05.276Z,993.83
2019-05-23T07:41:05.432Z,993.83
2019-05-23T07:42:05.559Z,993.85
2019-05-23T07:43:05.670Z,993.86
2019-05-23T07:44:05.845Z,993.86
2019-05-23T07:45:05.931Z,993.82
2019-05-23T07:46:06.073Z,993.82
2019-05-23T07:47:06.215Z,993.79
2019-05-23T07:48:06.347Z,993.81
2019-05-23T07:49:06.485Z,993.81
2019-05-23T07:50:06.608Z,993.84
2019-05-23T07:51:06.739Z,993.81
2019-05-23T07:52:06.872Z,993.85
2019-05-23T07:53:06.996Z,993.82
2019-05-23T07:54:07.128Z,993.86
2019-05-23T07:55:07.261Z,993.87
2019-05-23T07:56:07.387Z,993.84
2019-05-23T07:57:07.521Z,993.81
2019-05-23T07:58:07.651Z,993.82
2019-05-23T07:59:07.791Z,993.86
2019-05-23T08:00:07.993Z,993.88
2019-05-23T08:01:08.099Z,993.86
2019-05-23T08:02:08.179Z,993.89
2019-05-23T08:03:08.323Z,993.87
2019-05-23T08:04:20.437Z,993.88
2019-05-23T08:05:08.568Z,993.86
2019-05-23T08:06:08.710Z,993.85
2019-05-23T08:07:08.832Z,993.84
2019-05-23T08:08:09.230Z,993.84
2019-05-23T08:09:09.085Z,993.81
2019-05-23T08:10:09.236Z,993.85
2019-05-23T08:11:09.373Z,993.85
2019-05-23T08:12:09.502Z,993.85
2019-05-23T08:13:09.666Z,993.83
2019-05-23T08:14:12.086Z,993.82
2019-05-23T08:15:09.892Z,993.82
2019-05-23T08:16:10.018Z,993.80
2019-05-23T08:17:10.148Z,993.76
2019-05-23T08:18:10.279Z,993.79
2019-05-23T08:19:10.417Z,993.79
2019-05-23T08:20:10.542Z,993.76
2019-05-23T08:21:10.675Z,993.76
2019-05-23T08:22:10.805Z,993.77
2019-05-23T08:23:10.954Z,993.76
2019-05-23T08:24:11.081Z,993.76
2019-05-23T08:25:11.206Z,993.74
2019-05-23T08:26:11.341Z,993.76
2019-05-23T08:27:11.477Z,993.74
2019-05-23T08:28:11.593Z,993.70
2019-05-23T08:29:25.382Z,993.72
2019-05-23T08:30:11.863Z,993.72
2019-05-23T08:31:11.987Z,993.70
2019-05-23T08:32:12.113Z,993.76
2019-05-23T08:33:12.330Z,993.74
2019-05-23T08:34:12.385Z,993.73
2019-05-23T08:35:17.225Z,993.73
2019-05-23T08:36:12.647Z,993.73
2019-05-23T08:37:12.800Z,993.75
2019-05-23T08:38:12.920Z,993.69
2019-05-23T08:39:13.047Z,993.69
2019-05-23T08:40:13.178Z,993.70
2019-05-23T08:41:13.340Z,993.66
2019-05-23T08:42:13.450Z,993.68
2019-05-23T08:43:13.889Z,993.64
2019-05-23T08:44:13.718Z,993.64
2019-05-23T08:45:13.851Z,993.66
2019-05-23T08:46:13.992Z,993.60
2019-05-23T08:47:14.118Z,993.58
2019-05-23T08:48:14.254Z,993.60
2019-05-23T08:49:14.385Z,993.53
2019-05-23T08:50:14.507Z,993.51
2019-05-23T08:51:14.641Z,993.53
2019-05-23T08:52:14.777Z,993.54
2019-05-23T08:53:14.906Z,993.51
2019-05-23T08:54:15.095Z,993.49
2019-05-23T08:55:15.176Z,993.46
2019-05-23T08:56:18.785Z,993.51
2019-05-23T08:57:15.435Z,993.49
2019-05-23T08:58:15.571Z,993.46
2019-05-23T08:59:15.703Z,993.46
2019-05-23T09:00:15.837Z,993.47
2019-05-23T09:01:15.977Z,993.47
2019-05-23T09:02:16.106Z,993.44
2019-05-23T09:03:16.238Z,993.42
2019-05-23T09:04:16.373Z,993.41
2019-05-23T09:05:16.504Z,993.45
2019-05-23T09:06:16.638Z,993.39
2019-05-23T09:07:16.769Z,993.41
2019-05-23T09:08:17.431Z,993.37
2019-05-23T09:09:29.282Z,993.34
2019-05-23T09:10:17.160Z,993.33
2019-05-23T09:11:17.285Z,993.31
2019-05-23T09:12:17.434Z,993.30
2019-05-23T09:13:17.574Z,993.29
2019-05-23T09:14:17.701Z,993.33
2019-05-23T09:15:17.828Z,993.31
2019-05-23T09:16:17.972Z,993.31
2019-05-23T09:17:18.124Z,993.29
2019-05-23T09:18:18.250Z,993.33
2019-05-23T09:19:18.386Z,993.29
2019-05-23T09:20:18.508Z,993.28
2019-05-23T09:21:18.651Z,993.28
2019-05-23T09:22:18.780Z,993.25
2019-05-23T09:23:18.919Z,993.26
2019-05-23T09:24:19.058Z,993.33
2019-05-23T09:25:19.209Z,993.27
2019-05-23T09:26:19.322Z,993.25
2019-05-23T09:27:19.450Z,993.28
2019-05-23T09:28:19.586Z,993.23
2019-05-23T09:29:19.757Z,993.26
2019-05-23T09:30:19.871Z,993.20
2019-05-23T09:31:20.011Z,993.24
2019-05-23T09:32:20.146Z,993.25
2019-05-23T09:33:20.311Z,993.23
2019-05-23T09:34:20.445Z,993.23
2019-05-23T09:35:21.985Z,993.24
2019-05-23T09:36:20.699Z,993.18
2019-05-23T09:37:20.868Z,993.19
2019-05-23T09:38:20.989Z,993.23
2019-05-23T09:39:21.125Z,993.23
2019-05-23T09:40:21.267Z,993.24
2019-05-23T09:41:21.399Z,993.22
2019-05-23T09:42:21.542Z,993.21
2019-05-23T09:43:21.669Z,993.20
2019-05-23T09:44:21.852Z,993.19
2019-05-23T09:45:21.969Z,993.17
2019-05-23T09:46:22.096Z,993.18
2019-05-23T09:47:22.228Z,993.19
2019-05-23T09:48:22.399Z,993.17
2019-05-23T09:49:22.495Z,993.15
2019-05-23T09:50:22.635Z,993.14
2019-05-23T09:51:22.768Z,993.20
2019-05-23T09:52:22.980Z,993.15
2019-05-23T09:53:23.045Z,993.12
2019-05-23T09:54:23.183Z,993.13
2019-05-23T09:55:23.313Z,993.08
2019-05-23T09:56:23.462Z,993.08
2019-05-23T09:57:23.588Z,993.11
2019-05-23T09:58:23.728Z,993.13
2019-05-23T09:59:23.882Z,993.11
2019-05-23T10:00:24.027Z,993.10
2019-05-23T10:01:24.160Z,993.06
2019-05-23T10:02:24.290Z,993.09
2019-05-23T10:03:24.461Z,993.11
2019-05-23T10:04:24.589Z,993.07
2019-05-23T10:05:40.997Z,993.09
2019-05-23T10:06:24.902Z,993.07
2019-05-23T10:07:24.978Z,993.11
2019-05-23T10:08:25.154Z,993.17
2019-05-23T10:09:25.290Z,993.12
2019-05-23T10:10:25.414Z,993.14
2019-05-23T10:11:25.554Z,993.12
2019-05-23T10:12:25.689Z,993.10
2019-05-23T10:13:38.484Z,993.12
2019-05-23T10:14:25.950Z,993.11
2019-05-23T10:15:26.091Z,993.11
2019-05-23T10:16:26.234Z,993.09
2019-05-23T10:17:26.390Z,993.03
2019-05-23T10:18:26.499Z,993.10
2019-05-23T10:19:26.671Z,993.01
2019-05-23T10:20:26.795Z,993.01
2019-05-23T10:21:26.921Z,993.02
2019-05-23T10:22:27.055Z,993.00
2019-05-23T10:23:27.208Z,992.96
2019-05-23T10:24:27.338Z,992.97
2019-05-23T10:25:27.471Z,992.96
2019-05-23T10:26:27.608Z,992.98
2019-05-23T10:27:27.749Z,992.96
2019-05-23T10:28:27.887Z,992.96
2019-05-23T10:29:28.024Z,992.97
2019-05-23T10:30:28.155Z,992.96
2019-05-23T10:31:28.287Z,993.00
2019-05-23T10:32:28.423Z,992.98
2019-05-23T10:33:28.550Z,993.01
2019-05-23T10:34:28.679Z,992.95
2019-05-23T10:35:28.820Z,992.95
2019-05-23T10:36:28.959Z,993.02
2019-05-23T10:37:29.100Z,992.88
2019-05-23T10:38:29.607Z,992.89
2019-05-23T10:39:29.354Z,992.92
2019-05-23T10:40:29.500Z,992.88
2019-05-23T10:41:29.623Z,992.86
2019-05-23T10:42:29.756Z,992.87
2019-05-23T10:43:29.888Z,992.82
2019-05-23T10:44:30.024Z,992.84
2019-05-23T10:45:30.158Z,992.79
2019-05-23T10:46:30.355Z,992.85
2019-05-23T10:47:30.442Z,992.81
2019-05-23T10:48:30.557Z,992.80
2019-05-23T10:49:30.723Z,992.77
2019-05-23T10:50:43.668Z,992.76
2019-05-23T10:51:30.966Z,992.78
2019-05-23T10:52:31.101Z,992.70
2019-05-23T10:53:31.252Z,992.71
2019-05-23T10:54:31.398Z,992.64
2019-05-23T10:55:31.509Z,992.65
2019-05-23T10:56:31.648Z,992.68
2019-05-23T10:57:31.776Z,992.65
2019-05-23T10:58:31.905Z,992.65
2019-05-23T10:59:32.047Z,992.62
2019-05-23T11:00:32.181Z,992.62
2019-05-23T11:01:32.310Z,992.62
2019-05-23T11:02:32.450Z,992.63
2019-05-23T11:03:32.607Z,992.70
2019-05-23T11:04:32.735Z,992.63
2019-05-23T11:05:32.871Z,992.61
2019-05-23T11:06:33.003Z,992.62
2019-05-23T11:07:33.140Z,992.61
2019-05-23T11:08:33.273Z,992.66
2019-05-23T11:09:37.664Z,992.60
2019-05-23T11:10:33.540Z,992.50
2019-05-23T11:11:33.681Z,992.54
2019-05-23T11:12:33.809Z,992.54
2019-05-23T11:13:33.951Z,992.57
2019-05-23T11:14:34.079Z,992.52
2019-05-23T11:15:34.219Z,992.49
2019-05-23T11:16:34.342Z,992.53
2019-05-23T11:17:34.480Z,992.54
2019-05-23T11:18:34.612Z,992.51
2019-05-23T11:19:34.744Z,992.56
2019-05-23T11:20:36.170Z,992.57
2019-05-23T11:21:35.038Z,992.52
2019-05-23T11:22:35.168Z,992.54
2019-05-23T11:23:35.297Z,992.49
2019-05-23T11:24:35.436Z,992.43
2019-05-23T11:25:35.622Z,992.57
2019-05-23T11:26:35.710Z,992.49
2019-05-23T11:27:35.863Z,992.47
2019-05-23T11:28:36.003Z,992.42
2019-05-23T11:29:36.122Z,992.45
2019-05-23T11:30:36.266Z,992.46
2019-05-23T11:31:36.409Z,992.48
2019-05-23T11:32:36.540Z,992.41
2019-05-23T11:33:36.667Z,992.35
2019-05-23T11:34:36.796Z,992.34
2019-05-23T11:35:36.930Z,992.33
2019-05-23T11:36:37.350Z,992.32
2019-05-23T11:37:37.203Z,992.28
2019-05-23T11:38:37.352Z,992.39
2019-05-23T11:39:41.939Z,992.30
2019-05-23T11:40:37.613Z,992.32
2019-05-23T11:41:37.743Z,992.36
2019-05-23T11:42:37.890Z,992.25
2019-05-23T11:43:38.024Z,992.25
2019-05-23T11:44:38.157Z,992.26
2019-05-23T11:45:45.657Z,992.27
2019-05-23T11:46:38.417Z,992.27
2019-05-23T11:47:38.699Z,992.25
2019-05-23T11:48:38.687Z,992.25
2019-05-23T11:49:39.381Z,992.25
2019-05-23T11:50:38.955Z,992.26
2019-05-23T11:51:39.095Z,992.30
2019-05-23T11:52:39.227Z,992.22
2019-05-23T11:53:39.367Z,992.24
2019-05-23T11:54:39.501Z,992.24
2019-05-23T11:55:39.651Z,992.20
2019-05-23T11:56:39.794Z,992.21
2019-05-23T11:57:39.945Z,992.17
2019-05-23T11:58:40.064Z,992.24
2019-05-23T11:59:40.181Z,992.19
2019-05-23T12:00:40.354Z,992.16
2019-05-23T12:01:40.451Z,992.15
2019-05-23T12:02:40.584Z,992.11
2019-05-23T12:03:40.714Z,992.11
2019-05-23T12:04:40.872Z,992.11
2019-05-23T12:05:40.979Z,992.09
2019-05-23T12:06:54.397Z,992.08
2019-05-23T12:07:41.259Z,992.07
2019-05-23T12:08:41.390Z,992.12
2019-05-23T12:09:41.527Z,992.10
2019-05-23T12:10:41.667Z,992.08
2019-05-23T12:11:42.804Z,992.06
2019-05-23T12:12:41.959Z,992.05
2019-05-23T12:13:42.106Z,992.01
2019-05-23T12:14:42.247Z,992.16
2019-05-23T12:15:42.375Z,992.09
2019-05-23T12:16:42.524Z,992.06
2019-05-23T12:17:42.653Z,992.00
2019-05-23T12:18:42.780Z,991.99
2019-05-23T12:19:42.912Z,991.99
2019-05-23T12:20:43.059Z,992.00
2019-05-23T12:21:43.192Z,991.97
2019-05-23T12:22:43.443Z,991.96
2019-05-23T12:23:43.480Z,991.96
2019-05-23T12:24:43.612Z,991.95
2019-05-23T12:25:43.759Z,992.00
2019-05-23T12:26:43.890Z,991.97
2019-05-23T12:27:44.059Z,991.99
2019-05-23T12:28:44.171Z,991.93
2019-05-23T12:29:44.335Z,991.91